sensor_id;sensor_type;location;lat;lon;timestamp;pressure;altitude;pressure_sealevel;temperature;humidity
41515;BME280;27247;48.020;16.720;2023-02-14T00:02:50;101855.59;;;2.14;91.20
41515;BME280;27247;48.020;16.720;2023-02-14T00:07:00;101869.47;;;2.17;91.90
41515;BME280;27247;48.020;16.720;2023-02-14T00:11:12;101858.44;;;2.28;91.20
41515;BME280;27247;48.020;16.720;2023-02-14T00:15:23;101857.88;;;2.21;91.68
41515;BME280;27247;48.020;16.720;2023-02-14T00:19:34;101859.56;;;2.22;93.02
41515;BME280;27247;48.020;16.720;2023-02-14T00:23:45;101863.00;;;2.24;93.55
41515;BME280;27247;48.020;16.720;2023-02-14T00:27:56;101864.63;;;2.27;94.01
41515;BME280;27247;48.020;16.720;2023-02-14T00:32:06;101864.47;;;2.30;94.46
41515;BME280;27247;48.020;16.720;2023-02-14T00:36:18;101863.69;;;2.28;95.24
41515;BME280;27247;48.020;16.720;2023-02-14T00:40:29;101873.03;;;2.35;95.68
41515;BME280;27247;48.020;16.720;2023-02-14T00:44:39;101855.22;;;2.40;95.60
41515;BME280;27247;48.020;16.720;2023-02-14T00:48:50;101855.84;;;2.45;95.81
41515;BME280;27247;48.020;16.720;2023-02-14T00:53:00;101854.75;;;2.49;96.16
41515;BME280;27247;48.020;16.720;2023-02-14T00:57:11;101851.97;;;2.52;96.04
41515;BME280;27247;48.020;16.720;2023-02-14T01:01:21;101840.25;;;2.58;96.12
41515;BME280;27247;48.020;16.720;2023-02-14T01:05:31;101843.47;;;2.65;96.55
41515;BME280;27247;48.020;16.720;2023-02-14T01:09:42;101834.47;;;2.69;96.31
41515;BME280;27247;48.020;16.720;2023-02-14T01:13:55;101827.16;;;2.74;96.51
41515;BME280;27247;48.020;16.720;2023-02-14T01:18:05;101831.22;;;2.81;96.53
41515;BME280;27247;48.020;16.720;2023-02-14T01:22:16;101833.53;;;2.87;96.93
41515;BME280;27247;48.020;16.720;2023-02-14T01:26:27;101832.06;;;2.99;96.51
41515;BME280;27247;48.020;16.720;2023-02-14T01:30:37;101829.59;;;3.13;95.56
41515;BME280;27247;48.020;16.720;2023-02-14T01:34:48;101837.81;;;3.24;94.87
41515;BME280;27247;48.020;16.720;2023-02-14T01:39:01;101835.47;;;3.35;94.15
41515;BME280;27247;48.020;16.720;2023-02-14T01:43:14;101828.00;;;3.43;93.73
41515;BME280;27247;48.020;16.720;2023-02-14T01:47:26;101824.03;;;3.52;93.34
41515;BME280;27247;48.020;16.720;2023-02-14T01:51:42;101823.84;;;3.55;93.46
41515;BME280;27247;48.020;16.720;2023-02-14T01:56:01;101816.78;;;3.56;93.32
41515;BME280;27247;48.020;16.720;2023-02-14T02:00:14;101818.84;;;3.66;92.89
41515;BME280;27247;48.020;16.720;2023-02-14T02:04:45;101809.97;;;3.67;92.78
41515;BME280;27247;48.020;16.720;2023-02-14T02:09:16;101812.97;;;3.77;92.91
41515;BME280;27247;48.020;16.720;2023-02-14T02:13:27;101815.88;;;3.72;92.58
41515;BME280;27247;48.020;16.720;2023-02-14T02:18:02;101817.41;;;3.76;92.63
41515;BME280;27247;48.020;16.720;2023-02-14T02:49:36;101798.31;;;3.87;92.80
41515;BME280;27247;48.020;16.720;2023-02-14T02:54:13;101795.50;;;3.90;92.52
41515;BME280;27247;48.020;16.720;2023-02-14T02:58:33;101798.91;;;3.92;92.79
41515;BME280;27247;48.020;16.720;2023-02-14T03:02:48;101786.81;;;3.88;92.79
41515;BME280;27247;48.020;16.720;2023-02-14T03:07:29;101787.75;;;3.87;92.74
41515;BME280;27247;48.020;16.720;2023-02-14T03:17:03;101784.25;;;3.87;92.58
41515;BME280;27247;48.020;16.720;2023-02-14T03:25:45;101781.44;;;3.90;92.09
41515;BME280;27247;48.020;16.720;2023-02-14T03:34:36;101793.38;;;3.97;91.87
41515;BME280;27247;48.020;16.720;2023-02-14T03:38:56;101782.03;;;3.95;91.57
41515;BME280;27247;48.020;16.720;2023-02-14T03:43:16;101772.47;;;3.92;91.72
41515;BME280;27247;48.020;16.720;2023-02-14T03:47:31;101775.72;;;3.97;91.69
41515;BME280;27247;48.020;16.720;2023-02-14T03:51:45;101786.13;;;3.84;91.67
41515;BME280;27247;48.020;16.720;2023-02-14T04:00:25;101776.16;;;3.90;92.24
41515;BME280;27247;48.020;16.720;2023-02-14T04:04:41;101773.50;;;3.90;91.81
41515;BME280;27247;48.020;16.720;2023-02-14T04:08:53;101776.22;;;3.88;91.98
41515;BME280;27247;48.020;16.720;2023-02-14T04:13:03;101778.19;;;3.84;92.86
41515;BME280;27247;48.020;16.720;2023-02-14T04:17:13;101775.78;;;3.80;92.61
41515;BME280;27247;48.020;16.720;2023-02-14T04:21:42;101772.47;;;3.76;92.64
41515;BME280;27247;48.020;16.720;2023-02-14T04:25:53;101767.53;;;3.86;93.04
41515;BME280;27247;48.020;16.720;2023-02-14T04:30:03;101761.97;;;3.91;92.85
41515;BME280;27247;48.020;16.720;2023-02-14T04:34:14;101768.63;;;3.82;92.97
41515;BME280;27247;48.020;16.720;2023-02-14T04:38:25;101765.03;;;3.67;93.45
41515;BME280;27247;48.020;16.720;2023-02-14T04:42:35;101757.72;;;3.72;93.36
41515;BME280;27247;48.020;16.720;2023-02-14T04:46:46;101758.31;;;3.62;93.64
41515;BME280;27247;48.020;16.720;2023-02-14T04:50:56;101749.44;;;3.78;92.89
41515;BME280;27247;48.020;16.720;2023-02-14T04:55:07;101751.75;;;3.84;91.82
41515;BME280;27247;48.020;16.720;2023-02-14T04:59:18;101748.16;;;4.01;90.87
41515;BME280;27247;48.020;16.720;2023-02-14T05:03:28;101744.13;;;4.10;90.16
41515;BME280;27247;48.020;16.720;2023-02-14T05:07:39;101745.44;;;4.19;89.05
41515;BME280;27247;48.020;16.720;2023-02-14T05:11:49;101735.44;;;4.24;88.61
41515;BME280;27247;48.020;16.720;2023-02-14T05:15:59;101741.50;;;4.26;87.75
41515;BME280;27247;48.020;16.720;2023-02-14T05:20:10;101732.03;;;4.22;88.25
41515;BME280;27247;48.020;16.720;2023-02-14T05:24:20;101732.78;;;4.24;88.17
41515;BME280;27247;48.020;16.720;2023-02-14T05:28:31;101730.31;;;4.21;88.38
41515;BME280;27247;48.020;16.720;2023-02-14T05:32:41;101739.59;;;4.12;88.91
41515;BME280;27247;48.020;16.720;2023-02-14T05:36:51;101738.66;;;4.13;88.57
41515;BME280;27247;48.020;16.720;2023-02-14T05:41:04;101738.75;;;4.11;89.10
41515;BME280;27247;48.020;16.720;2023-02-14T05:45:14;101752.75;;;4.13;88.68
41515;BME280;27247;48.020;16.720;2023-02-14T05:49:25;101754.81;;;4.24;88.38
41515;BME280;27247;48.020;16.720;2023-02-14T05:53:35;101751.72;;;4.32;88.08
41515;BME280;27247;48.020;16.720;2023-02-14T05:57:46;101754.38;;;4.32;88.10
41515;BME280;27247;48.020;16.720;2023-02-14T06:01:56;101749.69;;;4.21;88.10
41515;BME280;27247;48.020;16.720;2023-02-14T06:06:07;101758.06;;;4.29;87.87
41515;BME280;27247;48.020;16.720;2023-02-14T06:10:19;101763.88;;;4.20;87.89
41515;BME280;27247;48.020;16.720;2023-02-14T06:14:30;101762.66;;;4.26;88.02
41515;BME280;27247;48.020;16.720;2023-02-14T06:18:40;101772.13;;;4.30;88.00
41515;BME280;27247;48.020;16.720;2023-02-14T06:22:51;101770.44;;;4.29;87.58
41515;BME280;27247;48.020;16.720;2023-02-14T06:27:01;101776.84;;;4.25;88.04
41515;BME280;27247;48.020;16.720;2023-02-14T06:31:15;101777.69;;;4.25;87.90
41515;BME280;27247;48.020;16.720;2023-02-14T06:35:26;101782.97;;;4.25;88.64
41515;BME280;27247;48.020;16.720;2023-02-14T06:39:36;101782.13;;;4.25;88.83
41515;BME280;27247;48.020;16.720;2023-02-14T06:43:47;101776.84;;;4.25;88.99
41515;BME280;27247;48.020;16.720;2023-02-14T06:47:57;101776.66;;;4.12;88.81
41515;BME280;27247;48.020;16.720;2023-02-14T06:52:09;101780.06;;;4.14;88.90
41515;BME280;27247;48.020;16.720;2023-02-14T06:56:20;101789.56;;;4.18;88.61
41515;BME280;27247;48.020;16.720;2023-02-14T07:00:30;101787.91;;;4.15;88.91
41515;BME280;27247;48.020;16.720;2023-02-14T07:04:41;101783.34;;;4.19;89.09
41515;BME280;27247;48.020;16.720;2023-02-14T07:08:51;101791.50;;;4.14;89.03
41515;BME280;27247;48.020;16.720;2023-02-14T07:13:02;101791.34;;;4.18;88.75
41515;BME280;27247;48.020;16.720;2023-02-14T07:17:12;101797.50;;;4.18;88.27
41515;BME280;27247;48.020;16.720;2023-02-14T07:21:22;101794.84;;;4.18;88.63
41515;BME280;27247;48.020;16.720;2023-02-14T07:25:33;101794.69;;;4.21;88.60
41515;BME280;27247;48.020;16.720;2023-02-14T07:29:43;101797.31;;;4.21;88.88
41515;BME280;27247;48.020;16.720;2023-02-14T07:33:54;101788.63;;;4.19;88.81
41515;BME280;27247;48.020;16.720;2023-02-14T07:38:04;101786.66;;;4.23;88.69
41515;BME280;27247;48.020;16.720;2023-02-14T07:42:15;101784.69;;;4.26;88.57
41515;BME280;27247;48.020;16.720;2023-02-14T07:46:25;101789.97;;;4.26;88.98
41515;BME280;27247;48.020;16.720;2023-02-14T07:50:35;101792.28;;;4.32;89.07
41515;BME280;27247;48.020;16.720;2023-02-14T07:54:46;101801.75;;;4.36;89.03
41515;BME280;27247;48.020;16.720;2023-02-14T07:58:56;101808.31;;;4.45;88.87
41515;BME280;27247;48.020;16.720;2023-02-14T08:03:07;101818.47;;;4.53;88.50
41515;BME280;27247;48.020;16.720;2023-02-14T08:07:17;101821.19;;;4.51;88.75
41515;BME280;27247;48.020;16.720;2023-02-14T08:11:27;101823.03;;;4.65;87.92
41515;BME280;27247;48.020;16.720;2023-02-14T08:15:56;101820.31;;;4.66;87.96
41515;BME280;27247;48.020;16.720;2023-02-14T08:20:16;101810.22;;;4.73;87.65
41515;BME280;27247;48.020;16.720;2023-02-14T08:24:27;101811.56;;;4.80;87.65
41515;BME280;27247;48.020;16.720;2023-02-14T08:28:37;101816.69;;;4.83;87.11
41515;BME280;27247;48.020;16.720;2023-02-14T08:32:47;101823.41;;;4.89;87.25
41515;BME280;27247;48.020;16.720;2023-02-14T08:36:58;101826.56;;;4.95;87.66
41515;BME280;27247;48.020;16.720;2023-02-14T08:41:08;101820.97;;;5.00;87.19
41515;BME280;27247;48.020;16.720;2023-02-14T08:45:19;101823.34;;;5.04;86.83
41515;BME280;27247;48.020;16.720;2023-02-14T08:49:29;101816.94;;;5.08;86.83
41515;BME280;27247;48.020;16.720;2023-02-14T08:53:40;101821.00;;;5.14;86.99
41515;BME280;27247;48.020;16.720;2023-02-14T08:57:50;101829.28;;;5.24;85.96
41515;BME280;27247;48.020;16.720;2023-02-14T09:02:01;101825.69;;;5.25;85.95
41515;BME280;27247;48.020;16.720;2023-02-14T09:06:15;101832.34;;;5.32;86.40
41515;BME280;27247;48.020;16.720;2023-02-14T09:10:26;101828.56;;;5.36;85.82
41515;BME280;27247;48.020;16.720;2023-02-14T09:14:40;101835.09;;;5.44;85.46
41515;BME280;27247;48.020;16.720;2023-02-14T09:18:53;101839.75;;;5.55;85.21
41515;BME280;27247;48.020;16.720;2023-02-14T09:23:04;101846.75;;;5.70;85.06
41515;BME280;27247;48.020;16.720;2023-02-14T09:27:14;101845.31;;;5.79;84.27
41515;BME280;27247;48.020;16.720;2023-02-14T09:31:24;101846.19;;;5.80;83.52
41515;BME280;27247;48.020;16.720;2023-02-14T09:35:35;101854.25;;;5.92;82.96
41515;BME280;27247;48.020;16.720;2023-02-14T09:39:45;101848.09;;;6.06;82.55
41515;BME280;27247;48.020;16.720;2023-02-14T09:44:05;101851.19;;;6.13;82.23
41515;BME280;27247;48.020;16.720;2023-02-14T09:48:38;101849.19;;;6.16;80.87
41515;BME280;27247;48.020;16.720;2023-02-14T09:52:55;101846.09;;;6.09;81.12
41515;BME280;27247;48.020;16.720;2023-02-14T09:57:17;101841.25;;;6.16;81.88
41515;BME280;27247;48.020;16.720;2023-02-14T10:01:35;101847.09;;;6.21;81.25
41515;BME280;27247;48.020;16.720;2023-02-14T10:10:42;101842.53;;;6.37;81.04
41515;BME280;27247;48.020;16.720;2023-02-14T10:14:55;101837.50;;;6.47;80.75
41515;BME280;27247;48.020;16.720;2023-02-14T10:19:20;101831.44;;;6.45;80.11
41515;BME280;27247;48.020;16.720;2023-02-14T10:27:44;101844.31;;;6.51;79.98
41515;BME280;27247;48.020;16.720;2023-02-14T10:31:58;101848.13;;;6.47;79.63
41515;BME280;27247;48.020;16.720;2023-02-14T10:45:37;101834.53;;;6.52;79.94
41515;BME280;27247;48.020;16.720;2023-02-14T10:49:59;101820.38;;;6.78;79.29
41515;BME280;27247;48.020;16.720;2023-02-14T10:54:25;101825.16;;;6.73;79.08
41515;BME280;27247;48.020;16.720;2023-02-14T10:58:37;101814.63;;;6.71;79.03
41515;BME280;27247;48.020;16.720;2023-02-14T11:03:00;101820.09;;;6.56;78.55
41515;BME280;27247;48.020;16.720;2023-02-14T11:07:15;101817.44;;;6.56;79.80
41515;BME280;27247;48.020;16.720;2023-02-14T11:11:53;101809.06;;;6.62;78.66
41515;BME280;27247;48.020;16.720;2023-02-14T11:16:07;101802.66;;;6.52;78.25
41515;BME280;27247;48.020;16.720;2023-02-14T11:24:34;101801.84;;;6.64;78.34
41515;BME280;27247;48.020;16.720;2023-02-14T11:28:58;101802.47;;;6.55;78.34
41515;BME280;27247;48.020;16.720;2023-02-14T11:33:42;101808.81;;;6.25;79.67
41515;BME280;27247;48.020;16.720;2023-02-14T11:37:56;101801.00;;;6.36;80.45
41515;BME280;27247;48.020;16.720;2023-02-14T11:42:10;101789.34;;;6.39;79.76
41515;BME280;27247;48.020;16.720;2023-02-14T11:50:33;101787.66;;;6.24;80.04
41515;BME280;27247;48.020;16.720;2023-02-14T11:54:46;101782.22;;;6.39;80.27
41515;BME280;27247;48.020;16.720;2023-02-14T11:59:03;101769.09;;;6.51;79.70
41515;BME280;27247;48.020;16.720;2023-02-14T12:03:16;101766.19;;;6.93;77.11
41515;BME280;27247;48.020;16.720;2023-02-14T12:07:38;101766.00;;;7.22;77.11
41515;BME280;27247;48.020;16.720;2023-02-14T12:12:03;101759.19;;;7.56;73.67
41515;BME280;27247;48.020;16.720;2023-02-14T12:16:20;101763.78;;;7.41;73.09
41515;BME280;27247;48.020;16.720;2023-02-14T12:25:24;101761.75;;;7.19;73.31
41515;BME280;27247;48.020;16.720;2023-02-14T12:33:50;101752.69;;;7.09;74.41
41515;BME280;27247;48.020;16.720;2023-02-14T12:48:33;101739.88;;;7.28;73.86
41515;BME280;27247;48.020;16.720;2023-02-14T12:57:00;101730.78;;;7.56;73.75
41515;BME280;27247;48.020;16.720;2023-02-14T13:10:43;101720.25;;;7.55;71.41
41515;BME280;27247;48.020;16.720;2023-02-14T13:24:15;101724.91;;;8.00;70.97
41515;BME280;27247;48.020;16.720;2023-02-14T13:28:28;101728.75;;;7.96;70.64
41515;BME280;27247;48.020;16.720;2023-02-14T13:32:41;101711.78;;;7.74;70.69
41515;BME280;27247;48.020;16.720;2023-02-14T13:36:56;101713.16;;;8.27;69.15
41515;BME280;27247;48.020;16.720;2023-02-14T13:41:07;101717.09;;;8.58;67.64
41515;BME280;27247;48.020;16.720;2023-02-14T13:49:55;101702.03;;;8.92;67.34
41515;BME280;27247;48.020;16.720;2023-02-14T14:02:56;101699.25;;;9.27;65.60
41515;BME280;27247;48.020;16.720;2023-02-14T14:07:24;101700.09;;;9.27;65.42
41515;BME280;27247;48.020;16.720;2023-02-14T14:20:43;101678.41;;;9.54;64.51
41515;BME280;27247;48.020;16.720;2023-02-14T14:24:58;101690.53;;;9.36;63.88
41515;BME280;27247;48.020;16.720;2023-02-14T14:33:40;101687.38;;;9.53;63.78
41515;BME280;27247;48.020;16.720;2023-02-14T14:37:57;101687.13;;;9.56;63.88
41515;BME280;27247;48.020;16.720;2023-02-14T14:42:12;101682.28;;;9.28;64.26
41515;BME280;27247;48.020;16.720;2023-02-14T14:46:24;101683.25;;;9.27;64.87
41515;BME280;27247;48.020;16.720;2023-02-14T14:50:35;101681.31;;;9.29;65.09
41515;BME280;27247;48.020;16.720;2023-02-14T14:54:45;101668.34;;;9.36;63.70
41515;BME280;27247;48.020;16.720;2023-02-14T14:58:57;101668.81;;;9.18;63.97
41515;BME280;27247;48.020;16.720;2023-02-14T15:07:32;101665.44;;;9.05;63.85
41515;BME280;27247;48.020;16.720;2023-02-14T15:11:43;101666.88;;;9.20;64.22
41515;BME280;27247;48.020;16.720;2023-02-14T15:20:34;101667.38;;;9.14;63.74
41515;BME280;27247;48.020;16.720;2023-02-14T15:24:46;101667.72;;;8.87;65.76
41515;BME280;27247;48.020;16.720;2023-02-14T15:29:03;101671.69;;;8.71;65.70
41515;BME280;27247;48.020;16.720;2023-02-14T15:33:13;101677.47;;;8.53;65.73
41515;BME280;27247;48.020;16.720;2023-02-14T15:37:24;101679.81;;;8.10;66.54
41515;BME280;27247;48.020;16.720;2023-02-14T15:41:35;101681.44;;;8.00;67.87
41515;BME280;27247;48.020;16.720;2023-02-14T15:45:48;101680.94;;;7.71;67.88
41515;BME280;27247;48.020;16.720;2023-02-14T15:50:00;101689.69;;;7.60;68.61
41515;BME280;27247;48.020;16.720;2023-02-14T15:54:24;101684.28;;;7.49;69.62
41515;BME280;27247;48.020;16.720;2023-02-14T15:58:37;101693.69;;;7.29;69.84
41515;BME280;27247;48.020;16.720;2023-02-14T16:02:59;101691.47;;;7.11;70.81
41515;BME280;27247;48.020;16.720;2023-02-14T16:07:23;101696.03;;;6.96;70.81
41515;BME280;27247;48.020;16.720;2023-02-14T16:11:35;101700.28;;;6.73;71.58
41515;BME280;27247;48.020;16.720;2023-02-14T16:15:58;101708.13;;;6.62;72.37
41515;BME280;27247;48.020;16.720;2023-02-14T16:20:36;101709.28;;;6.58;72.79
41515;BME280;27247;48.020;16.720;2023-02-14T16:24:48;101710.25;;;6.57;73.02
41515;BME280;27247;48.020;16.720;2023-02-14T16:29:01;101710.22;;;6.44;72.82
41515;BME280;27247;48.020;16.720;2023-02-14T16:33:19;101707.13;;;6.37;73.12
41515;BME280;27247;48.020;16.720;2023-02-14T16:37:31;101710.59;;;6.25;73.95
41515;BME280;27247;48.020;16.720;2023-02-14T16:41:44;101716.66;;;6.27;74.12
41515;BME280;27247;48.020;16.720;2023-02-14T16:45:55;101712.03;;;6.17;74.09
41515;BME280;27247;48.020;16.720;2023-02-14T16:50:07;101709.88;;;6.09;74.84
41515;BME280;27247;48.020;16.720;2023-02-14T16:54:20;101715.78;;;6.00;74.57
41515;BME280;27247;48.020;16.720;2023-02-14T16:58:35;101725.19;;;5.91;75.00
41515;BME280;27247;48.020;16.720;2023-02-14T17:02:46;101722.25;;;5.82;75.36
41515;BME280;27247;48.020;16.720;2023-02-14T17:06:56;101719.91;;;5.77;75.56
41515;BME280;27247;48.020;16.720;2023-02-14T17:11:08;101726.63;;;5.68;76.34
41515;BME280;27247;48.020;16.720;2023-02-14T17:15:19;101728.91;;;5.74;76.04
41515;BME280;27247;48.020;16.720;2023-02-14T17:19:32;101727.97;;;5.61;76.11
41515;BME280;27247;48.020;16.720;2023-02-14T17:23:43;101732.13;;;5.65;76.13
41515;BME280;27247;48.020;16.720;2023-02-14T17:27:54;101728.75;;;5.49;76.56
41515;BME280;27247;48.020;16.720;2023-02-14T17:32:06;101725.44;;;5.45;76.68
41515;BME280;27247;48.020;16.720;2023-02-14T17:36:19;101735.13;;;5.32;77.28
41515;BME280;27247;48.020;16.720;2023-02-14T17:40:32;101728.88;;;5.33;77.13
41515;BME280;27247;48.020;16.720;2023-02-14T17:44:43;101724.59;;;5.31;77.08
41515;BME280;27247;48.020;16.720;2023-02-14T17:48:54;101730.16;;;5.12;77.39
41515;BME280;27247;48.020;16.720;2023-02-14T17:53:05;101737.81;;;5.02;77.95
41515;BME280;27247;48.020;16.720;2023-02-14T17:57:16;101736.13;;;5.01;77.73
41515;BME280;27247;48.020;16.720;2023-02-14T18:01:31;101729.88;;;5.02;78.39
41515;BME280;27247;48.020;16.720;2023-02-14T18:05:43;101738.56;;;5.04;78.18
41515;BME280;27247;48.020;16.720;2023-02-14T18:09:54;101737.63;;;4.91;79.28
41515;BME280;27247;48.020;16.720;2023-02-14T18:14:07;101733.16;;;4.92;79.08
41515;BME280;27247;48.020;16.720;2023-02-14T18:18:19;101732.13;;;4.94;79.32
41515;BME280;27247;48.020;16.720;2023-02-14T18:22:30;101730.59;;;4.76;79.22
41515;BME280;27247;48.020;16.720;2023-02-14T18:26:43;101730.22;;;4.82;79.07
41515;BME280;27247;48.020;16.720;2023-02-14T18:30:54;101728.69;;;4.78;79.48
41515;BME280;27247;48.020;16.720;2023-02-14T18:35:07;101734.38;;;4.72;79.98
41515;BME280;27247;48.020;16.720;2023-02-14T18:39:18;101728.41;;;4.68;80.28
41515;BME280;27247;48.020;16.720;2023-02-14T18:43:29;101720.63;;;4.65;80.52
41515;BME280;27247;48.020;16.720;2023-02-14T18:47:40;101711.56;;;4.69;80.40
41515;BME280;27247;48.020;16.720;2023-02-14T18:51:51;101721.50;;;4.66;80.79
41515;BME280;27247;48.020;16.720;2023-02-14T18:56:07;101715.25;;;4.67;80.54
41515;BME280;27247;48.020;16.720;2023-02-14T19:00:19;101714.41;;;4.66;80.61
41515;BME280;27247;48.020;16.720;2023-02-14T19:04:30;101710.31;;;4.61;81.36
41515;BME280;27247;48.020;16.720;2023-02-14T19:08:41;101706.50;;;4.51;81.53
41515;BME280;27247;48.020;16.720;2023-02-14T19:12:52;101707.84;;;4.58;81.51
41515;BME280;27247;48.020;16.720;2023-02-14T19:17:04;101713.16;;;4.58;81.15
41515;BME280;27247;48.020;16.720;2023-02-14T19:21:17;101718.63;;;4.55;81.49
41515;BME280;27247;48.020;16.720;2023-02-14T19:25:29;101714.09;;;4.57;81.47
41515;BME280;27247;48.020;16.720;2023-02-14T19:29:42;101717.19;;;4.49;81.62
41515;BME280;27247;48.020;16.720;2023-02-14T19:33:53;101714.63;;;4.47;81.45
41515;BME280;27247;48.020;16.720;2023-02-14T19:38:04;101715.78;;;4.58;81.49
41515;BME280;27247;48.020;16.720;2023-02-14T19:42:15;101723.25;;;4.51;81.35
41515;BME280;27247;48.020;16.720;2023-02-14T19:46:27;101717.47;;;4.44;82.14
41515;BME280;27247;48.020;16.720;2023-02-14T19:50:38;101709.34;;;4.47;81.33
41515;BME280;27247;48.020;16.720;2023-02-14T19:54:49;101710.19;;;4.48;82.05
41515;BME280;27247;48.020;16.720;2023-02-14T19:59:00;101709.03;;;4.38;82.26
41515;BME280;27247;48.020;16.720;2023-02-14T20:03:17;101708.00;;;4.40;82.22
41515;BME280;27247;48.020;16.720;2023-02-14T20:07:28;101699.06;;;4.27;82.82
41515;BME280;27247;48.020;16.720;2023-02-14T20:11:41;101699.25;;;4.24;83.25
41515;BME280;27247;48.020;16.720;2023-02-14T20:16:01;101703.34;;;4.14;83.55
41515;BME280;27247;48.020;16.720;2023-02-14T20:20:12;101702.06;;;4.05;83.97
41515;BME280;27247;48.020;16.720;2023-02-14T20:24:30;101698.66;;;4.03;84.24
41515;BME280;27247;48.020;16.720;2023-02-14T20:28:43;101707.81;;;3.98;84.32
41515;BME280;27247;48.020;16.720;2023-02-14T20:32:54;101701.91;;;3.93;84.56
41515;BME280;27247;48.020;16.720;2023-02-14T20:37:05;101699.28;;;3.93;84.20
41515;BME280;27247;48.020;16.720;2023-02-14T20:41:16;101699.53;;;3.88;84.19
41515;BME280;27247;48.020;16.720;2023-02-14T20:45:27;101705.16;;;3.82;83.74
41515;BME280;27247;48.020;16.720;2023-02-14T20:49:39;101692.72;;;3.84;83.57
41515;BME280;27247;48.020;16.720;2023-02-14T20:53:54;101698.19;;;3.81;82.89
41515;BME280;27247;48.020;16.720;2023-02-14T20:58:05;101688.19;;;3.86;82.48
41515;BME280;27247;48.020;16.720;2023-02-14T21:02:15;101686.75;;;3.80;81.91
41515;BME280;27247;48.020;16.720;2023-02-14T21:06:29;101683.44;;;3.77;81.51
41515;BME280;27247;48.020;16.720;2023-02-14T21:10:40;101690.16;;;3.51;82.47
41515;BME280;27247;48.020;16.720;2023-02-14T21:14:51;101687.00;;;3.44;83.22
41515;BME280;27247;48.020;16.720;2023-02-14T21:19:02;101687.03;;;3.11;82.16
41515;BME280;27247;48.020;16.720;2023-02-14T21:23:15;101686.50;;;2.72;82.50
41515;BME280;27247;48.020;16.720;2023-02-14T21:27:26;101685.88;;;2.67;82.87
41515;BME280;27247;48.020;16.720;2023-02-14T21:31:37;101690.06;;;2.71;82.42
41515;BME280;27247;48.020;16.720;2023-02-14T21:35:48;101683.56;;;2.43;83.29
41515;BME280;27247;48.020;16.720;2023-02-14T21:39:59;101680.16;;;2.41;83.75
41515;BME280;27247;48.020;16.720;2023-02-14T21:44:10;101681.88;;;2.42;84.08
41515;BME280;27247;48.020;16.720;2023-02-14T21:48:41;101674.72;;;2.44;84.97
41515;BME280;27247;48.020;16.720;2023-02-14T21:53:10;101671.16;;;2.11;84.14
41515;BME280;27247;48.020;16.720;2023-02-14T21:57:22;101663.50;;;2.05;84.24
41515;BME280;27247;48.020;16.720;2023-02-14T22:01:34;101675.13;;;1.83;84.03
41515;BME280;27247;48.020;16.720;2023-02-14T22:05:45;101665.22;;;2.06;85.22
41515;BME280;27247;48.020;16.720;2023-02-14T22:09:56;101665.22;;;2.06;86.04
41515;BME280;27247;48.020;16.720;2023-02-14T22:14:06;101657.06;;;1.93;87.09
41515;BME280;27247;48.020;16.720;2023-02-14T22:18:17;101657.63;;;2.00;87.51
41515;BME280;27247;48.020;16.720;2023-02-14T22:22:27;101652.41;;;1.98;87.47
41515;BME280;27247;48.020;16.720;2023-02-14T22:26:38;101650.53;;;1.83;87.43
41515;BME280;27247;48.020;16.720;2023-02-14T22:30:49;101653.03;;;1.86;87.39
41515;BME280;27247;48.020;16.720;2023-02-14T22:35:00;101655.09;;;1.79;87.24
41515;BME280;27247;48.020;16.720;2023-02-14T22:39:12;101655.06;;;1.62;87.86
41515;BME280;27247;48.020;16.720;2023-02-14T22:43:23;101654.94;;;1.65;87.57
41515;BME280;27247;48.020;16.720;2023-02-14T22:47:38;101658.63;;;1.61;86.98
41515;BME280;27247;48.020;16.720;2023-02-14T22:51:49;101661.00;;;1.48;86.54
41515;BME280;27247;48.020;16.720;2023-02-14T22:56:16;101656.31;;;1.36;88.13
41515;BME280;27247;48.020;16.720;2023-02-14T23:00:27;101652.31;;;1.27;88.49
41515;BME280;27247;48.020;16.720;2023-02-14T23:04:37;101656.66;;;1.28;88.12
41515;BME280;27247;48.020;16.720;2023-02-14T23:08:48;101650.97;;;1.19;87.62
41515;BME280;27247;48.020;16.720;2023-02-14T23:12:58;101653.19;;;1.09;88.53
41515;BME280;27247;48.020;16.720;2023-02-14T23:17:27;101654.19;;;1.07;89.37
41515;BME280;27247;48.020;16.720;2023-02-14T23:21:58;101643.50;;;1.10;89.64
41515;BME280;27247;48.020;16.720;2023-02-14T23:26:08;101649.91;;;1.04;89.53
41515;BME280;27247;48.020;16.720;2023-02-14T23:30:19;101647.38;;;1.01;90.39
41515;BME280;27247;48.020;16.720;2023-02-14T23:34:31;101644.97;;;0.96;90.28
41515;BME280;27247;48.020;16.720;2023-02-14T23:38:42;101642.59;;;0.90;91.12
41515;BME280;27247;48.020;16.720;2023-02-14T23:42:52;101646.50;;;0.82;90.77
41515;BME280;27247;48.020;16.720;2023-02-14T23:47:05;101650.53;;;0.70;90.21
41515;BME280;27247;48.020;16.720;2023-02-14T23:51:16;101639.97;;;0.51;90.82
41515;BME280;27247;48.020;16.720;2023-02-14T23:55:29;101639.47;;;0.43;90.72
41515;BME280;27247;48.020;16.720;2023-02-14T23:59:39;101636.03;;;0.41;91.14
